sensor_id;sensor_type;location;lat;lon;timestamp;temperature;humidity
6824;DHT22;58633;49.470;11.004;2022-10-16T00:01:16;16.80;99.90
6824;DHT22;58633;49.470;11.004;2022-10-16T00:03:43;16.70;99.90
6824;DHT22;58633;49.470;11.004;2022-10-16T00:06:10;17.00;99.90
6824;DHT22;58633;49.470;11.004;2022-10-16T00:08:36;16.90;99.90
6824;DHT22;58633;49.470;11.004;2022-10-16T00:11:11;16.90;99.90
6824;DHT22;58633;49.470;11.004;2022-10-16T00:13:39;16.80;99.90
6824;DHT22;58633;49.470;11.004;2022-10-16T00:16:06;16.90;99.90
6824;DHT22;58633;49.470;11.004;2022-10-16T00:18:32;16.80;99.90
6824;DHT22;58633;49.470;11.004;2022-10-16T00:21:09;16.90;99.90
6824;DHT22;58633;49.470;11.004;2022-10-16T00:23:35;16.90;99.90
6824;DHT22;58633;49.470;11.004;2022-10-16T00:26:04;16.80;99.90
6824;DHT22;58633;49.470;11.004;2022-10-16T00:28:30;16.90;99.90
6824;DHT22;58633;49.470;11.004;2022-10-16T00:30:56;16.90;99.90
6824;DHT22;58633;49.470;11.004;2022-10-16T00:33:22;16.90;99.90
6824;DHT22;58633;49.470;11.004;2022-10-16T00:35:48;16.80;99.90
6824;DHT22;58633;49.470;11.004;2022-10-16T00:38:14;16.80;99.90
6824;DHT22;58633;49.470;11.004;2022-10-16T00:40:40;16.70;99.90
6824;DHT22;58633;49.470;11.004;2022-10-16T00:45:57;16.80;99.90
6824;DHT22;58633;49.470;11.004;2022-10-16T00:48:23;16.90;99.90
6824;DHT22;58633;49.470;11.004;2022-10-16T00:50:49;16.80;99.90
6824;DHT22;58633;49.470;11.004;2022-10-16T00:53:14;16.90;99.90
6824;DHT22;58633;49.470;11.004;2022-10-16T00:55:41;16.80;99.90
6824;DHT22;58633;49.470;11.004;2022-10-16T00:58:07;16.80;99.90
6824;DHT22;58633;49.470;11.004;2022-10-16T01:00:32;16.70;99.90
6824;DHT22;58633;49.470;11.004;2022-10-16T01:03:00;16.70;99.90
6824;DHT22;58633;49.470;11.004;2022-10-16T01:05:39;16.90;99.90
6824;DHT22;58633;49.470;11.004;2022-10-16T01:08:18;16.80;99.90
6824;DHT22;58633;49.470;11.004;2022-10-16T01:11:13;16.70;99.90
6824;DHT22;58633;49.470;11.004;2022-10-16T01:13:46;16.70;99.90
6824;DHT22;58633;49.470;11.004;2022-10-16T01:16:19;16.70;99.90
6824;DHT22;58633;49.470;11.004;2022-10-16T01:18:54;16.70;99.90
6824;DHT22;58633;49.470;11.004;2022-10-16T01:21:28;16.70;99.90
6824;DHT22;58633;49.470;11.004;2022-10-16T01:24:12;16.70;99.90
6824;DHT22;58633;49.470;11.004;2022-10-16T01:30:18;16.70;99.90
6824;DHT22;58633;49.470;11.004;2022-10-16T01:32:55;16.70;99.90
6824;DHT22;58633;49.470;11.004;2022-10-16T01:35:34;16.70;99.90
6824;DHT22;58633;49.470;11.004;2022-10-16T01:38:50;16.70;99.90
6824;DHT22;58633;49.470;11.004;2022-10-16T01:41:01;16.80;99.90
6824;DHT22;58633;49.470;11.004;2022-10-16T01:43:33;16.60;99.90
6824;DHT22;58633;49.470;11.004;2022-10-16T01:46:01;16.70;99.90
6824;DHT22;58633;49.470;11.004;2022-10-16T01:48:28;16.50;99.90
6824;DHT22;58633;49.470;11.004;2022-10-16T01:51:05;16.80;99.90
6824;DHT22;58633;49.470;11.004;2022-10-16T01:53:32;16.60;99.90
6824;DHT22;58633;49.470;11.004;2022-10-16T01:55:59;16.80;99.90
6824;DHT22;58633;49.470;11.004;2022-10-16T01:58:25;16.70;99.90
6824;DHT22;58633;49.470;11.004;2022-10-16T02:00:53;16.50;99.90
6824;DHT22;58633;49.470;11.004;2022-10-16T02:03:20;16.60;99.90
6824;DHT22;58633;49.470;11.004;2022-10-16T02:05:54;16.50;99.90
6824;DHT22;58633;49.470;11.004;2022-10-16T02:08:21;16.50;99.90
6824;DHT22;58633;49.470;11.004;2022-10-16T02:10:48;16.70;99.90
6824;DHT22;58633;49.470;11.004;2022-10-16T02:13:39;16.70;99.90
6824;DHT22;58633;49.470;11.004;2022-10-16T02:16:06;16.60;99.90
6824;DHT22;58633;49.470;11.004;2022-10-16T02:18:32;16.50;99.90
6824;DHT22;58633;49.470;11.004;2022-10-16T02:23:59;16.50;99.90
6824;DHT22;58633;49.470;11.004;2022-10-16T02:26:46;16.60;99.90
6824;DHT22;58633;49.470;11.004;2022-10-16T02:29:17;16.50;99.90
6824;DHT22;58633;49.470;11.004;2022-10-16T02:31:48;16.50;99.90
6824;DHT22;58633;49.470;11.004;2022-10-16T02:34:16;16.50;99.90
6824;DHT22;58633;49.470;11.004;2022-10-16T02:36:44;16.50;99.90
6824;DHT22;58633;49.470;11.004;2022-10-16T02:39:11;16.50;99.90
6824;DHT22;58633;49.470;11.004;2022-10-16T02:41:37;16.50;99.90
6824;DHT22;58633;49.470;11.004;2022-10-16T02:44:03;16.60;99.90
6824;DHT22;58633;49.470;11.004;2022-10-16T02:46:28;16.50;99.90
6824;DHT22;58633;49.470;11.004;2022-10-16T02:48:54;16.60;99.90
6824;DHT22;58633;49.470;11.004;2022-10-16T02:51:19;16.40;99.90
6824;DHT22;58633;49.470;11.004;2022-10-16T02:53:45;16.50;99.90
6824;DHT22;58633;49.470;11.004;2022-10-16T02:56:10;16.40;99.90
6824;DHT22;58633;49.470;11.004;2022-10-16T02:58:36;16.60;99.90
6824;DHT22;58633;49.470;11.004;2022-10-16T03:01:01;16.50;99.90
6824;DHT22;58633;49.470;11.004;2022-10-16T03:03:27;16.30;99.90
6824;DHT22;58633;49.470;11.004;2022-10-16T03:05:52;16.40;99.90
6824;DHT22;58633;49.470;11.004;2022-10-16T03:08:18;16.50;99.90
6824;DHT22;58633;49.470;11.004;2022-10-16T03:10:49;16.50;99.90
6824;DHT22;58633;49.470;11.004;2022-10-16T03:13:14;16.40;99.90
6824;DHT22;58633;49.470;11.004;2022-10-16T03:15:40;16.40;99.90
6824;DHT22;58633;49.470;11.004;2022-10-16T03:18:05;16.50;99.90
6824;DHT22;58633;49.470;11.004;2022-10-16T03:20:31;16.40;99.90
6824;DHT22;58633;49.470;11.004;2022-10-16T03:22:56;16.40;99.90
6824;DHT22;58633;49.470;11.004;2022-10-16T03:25:22;16.40;99.90
6824;DHT22;58633;49.470;11.004;2022-10-16T03:27:47;16.30;99.90
6824;DHT22;58633;49.470;11.004;2022-10-16T03:30:13;16.30;99.90
6824;DHT22;58633;49.470;11.004;2022-10-16T03:32:38;16.30;99.90
6824;DHT22;58633;49.470;11.004;2022-10-16T03:35:04;16.40;99.90
6824;DHT22;58633;49.470;11.004;2022-10-16T03:37:30;16.30;99.90
6824;DHT22;58633;49.470;11.004;2022-10-16T03:39:55;16.30;99.90
6824;DHT22;58633;49.470;11.004;2022-10-16T03:42:21;16.20;99.90
6824;DHT22;58633;49.470;11.004;2022-10-16T03:44:47;16.40;99.90
6824;DHT22;58633;49.470;11.004;2022-10-16T03:47:12;16.00;99.90
6824;DHT22;58633;49.470;11.004;2022-10-16T03:49:38;16.30;99.90
6824;DHT22;58633;49.470;11.004;2022-10-16T03:52:03;16.30;99.90
6824;DHT22;58633;49.470;11.004;2022-10-16T03:54:29;16.20;99.90
6824;DHT22;58633;49.470;11.004;2022-10-16T03:56:54;16.30;99.90
6824;DHT22;58633;49.470;11.004;2022-10-16T03:59:20;16.20;99.90
6824;DHT22;58633;49.470;11.004;2022-10-16T04:01:45;16.40;99.90
6824;DHT22;58633;49.470;11.004;2022-10-16T04:04:11;16.20;99.90
6824;DHT22;58633;49.470;11.004;2022-10-16T04:06:36;16.40;99.90
6824;DHT22;58633;49.470;11.004;2022-10-16T04:09:02;16.20;99.90
6824;DHT22;58633;49.470;11.004;2022-10-16T04:11:28;16.20;99.90
6824;DHT22;58633;49.470;11.004;2022-10-16T04:13:54;16.30;99.90
6824;DHT22;58633;49.470;11.004;2022-10-16T04:16:19;16.20;99.90
6824;DHT22;58633;49.470;11.004;2022-10-16T04:18:45;16.10;99.90
6824;DHT22;58633;49.470;11.004;2022-10-16T04:21:11;16.20;99.90
6824;DHT22;58633;49.470;11.004;2022-10-16T04:23:36;16.20;99.90
6824;DHT22;58633;49.470;11.004;2022-10-16T04:26:02;16.30;99.90
6824;DHT22;58633;49.470;11.004;2022-10-16T04:28:28;16.30;99.90
6824;DHT22;58633;49.470;11.004;2022-10-16T04:30:53;16.40;99.90
6824;DHT22;58633;49.470;11.004;2022-10-16T04:33:19;16.20;99.90
6824;DHT22;58633;49.470;11.004;2022-10-16T04:35:44;16.30;99.90
6824;DHT22;58633;49.470;11.004;2022-10-16T04:38:10;16.30;99.90
6824;DHT22;58633;49.470;11.004;2022-10-16T04:40:36;16.30;99.90
6824;DHT22;58633;49.470;11.004;2022-10-16T04:43:03;16.40;99.90
6824;DHT22;58633;49.470;11.004;2022-10-16T04:45:29;16.40;99.90
6824;DHT22;58633;49.470;11.004;2022-10-16T04:47:58;16.20;99.90
6824;DHT22;58633;49.470;11.004;2022-10-16T04:50:24;16.30;99.90
6824;DHT22;58633;49.470;11.004;2022-10-16T04:52:49;16.30;99.90
6824;DHT22;58633;49.470;11.004;2022-10-16T04:55:15;16.50;99.90
6824;DHT22;58633;49.470;11.004;2022-10-16T04:57:40;16.40;99.90
6824;DHT22;58633;49.470;11.004;2022-10-16T05:00:07;16.30;99.90
6824;DHT22;58633;49.470;11.004;2022-10-16T05:04:59;16.30;99.90
6824;DHT22;58633;49.470;11.004;2022-10-16T05:07:25;16.40;99.90
6824;DHT22;58633;49.470;11.004;2022-10-16T05:09:50;16.40;99.90
6824;DHT22;58633;49.470;11.004;2022-10-16T05:12:16;16.20;99.90
6824;DHT22;58633;49.470;11.004;2022-10-16T05:14:41;16.40;99.90
6824;DHT22;58633;49.470;11.004;2022-10-16T05:17:07;16.20;99.90
6824;DHT22;58633;49.470;11.004;2022-10-16T05:19:32;16.30;99.90
6824;DHT22;58633;49.470;11.004;2022-10-16T05:21:58;16.30;99.90
6824;DHT22;58633;49.470;11.004;2022-10-16T05:24:24;16.30;99.90
6824;DHT22;58633;49.470;11.004;2022-10-16T05:26:50;16.20;99.90
6824;DHT22;58633;49.470;11.004;2022-10-16T05:29:15;16.20;99.90
6824;DHT22;58633;49.470;11.004;2022-10-16T05:31:41;16.20;99.90
6824;DHT22;58633;49.470;11.004;2022-10-16T05:34:06;16.30;99.90
6824;DHT22;58633;49.470;11.004;2022-10-16T05:36:32;16.30;99.90
6824;DHT22;58633;49.470;11.004;2022-10-16T05:38:58;16.10;99.90
6824;DHT22;58633;49.470;11.004;2022-10-16T05:41:23;16.30;99.90
6824;DHT22;58633;49.470;11.004;2022-10-16T05:43:51;16.20;99.90
6824;DHT22;58633;49.470;11.004;2022-10-16T05:46:16;16.30;99.90
6824;DHT22;58633;49.470;11.004;2022-10-16T05:48:42;16.30;99.90
6824;DHT22;58633;49.470;11.004;2022-10-16T05:51:11;16.40;99.90
6824;DHT22;58633;49.470;11.004;2022-10-16T05:53:38;16.20;99.90
6824;DHT22;58633;49.470;11.004;2022-10-16T05:56:05;16.30;99.90
6824;DHT22;58633;49.470;11.004;2022-10-16T05:58:36;16.30;99.90
6824;DHT22;58633;49.470;11.004;2022-10-16T06:01:11;16.30;99.90
6824;DHT22;58633;49.470;11.004;2022-10-16T06:03:37;16.30;99.90
6824;DHT22;58633;49.470;11.004;2022-10-16T06:06:15;16.50;99.90
6824;DHT22;58633;49.470;11.004;2022-10-16T06:08:43;16.10;99.90
6824;DHT22;58633;49.470;11.004;2022-10-16T06:11:10;16.30;99.90
6824;DHT22;58633;49.470;11.004;2022-10-16T06:13:36;16.30;99.90
6824;DHT22;58633;49.470;11.004;2022-10-16T06:16:03;16.30;99.90
6824;DHT22;58633;49.470;11.004;2022-10-16T06:18:29;16.30;99.90
6824;DHT22;58633;49.470;11.004;2022-10-16T06:20:55;16.30;99.90
6824;DHT22;58633;49.470;11.004;2022-10-16T06:23:22;16.30;99.90
6824;DHT22;58633;49.470;11.004;2022-10-16T06:25:48;16.30;99.90
6824;DHT22;58633;49.470;11.004;2022-10-16T06:28:14;16.40;99.90
6824;DHT22;58633;49.470;11.004;2022-10-16T06:33:06;16.40;99.90
6824;DHT22;58633;49.470;11.004;2022-10-16T06:35:31;16.30;99.90
6824;DHT22;58633;49.470;11.004;2022-10-16T06:37:57;16.30;99.90
6824;DHT22;58633;49.470;11.004;2022-10-16T06:40:23;16.30;99.90
6824;DHT22;58633;49.470;11.004;2022-10-16T06:42:49;16.20;99.90
6824;DHT22;58633;49.470;11.004;2022-10-16T06:45:14;16.40;99.90
6824;DHT22;58633;49.470;11.004;2022-10-16T06:47:40;16.40;99.90
6824;DHT22;58633;49.470;11.004;2022-10-16T06:50:06;16.40;99.90
6824;DHT22;58633;49.470;11.004;2022-10-16T06:52:34;16.50;99.90
6824;DHT22;58633;49.470;11.004;2022-10-16T06:54:59;16.60;99.90
6824;DHT22;58633;49.470;11.004;2022-10-16T06:57:26;16.40;99.90
6824;DHT22;58633;49.470;11.004;2022-10-16T06:59:52;16.40;99.90
6824;DHT22;58633;49.470;11.004;2022-10-16T07:02:17;16.50;99.90
6824;DHT22;58633;49.470;11.004;2022-10-16T07:04:43;16.50;99.90
6824;DHT22;58633;49.470;11.004;2022-10-16T07:09:34;16.60;99.90
6824;DHT22;58633;49.470;11.004;2022-10-16T07:14:26;16.40;99.90
6824;DHT22;58633;49.470;11.004;2022-10-16T07:16:51;16.50;99.90
6824;DHT22;58633;49.470;11.004;2022-10-16T07:19:17;16.40;99.90
6824;DHT22;58633;49.470;11.004;2022-10-16T07:21:43;16.60;99.90
6824;DHT22;58633;49.470;11.004;2022-10-16T07:24:16;16.60;99.90
6824;DHT22;58633;49.470;11.004;2022-10-16T07:26:44;16.70;99.90
6824;DHT22;58633;49.470;11.004;2022-10-16T07:29:14;16.60;99.90
6824;DHT22;58633;49.470;11.004;2022-10-16T07:31:41;16.60;99.90
6824;DHT22;58633;49.470;11.004;2022-10-16T07:34:07;19.50;99.90
6824;DHT22;58633;49.470;11.004;2022-10-16T07:36:32;16.80;99.90
6824;DHT22;58633;49.470;11.004;2022-10-16T07:38:58;16.70;99.90
6824;DHT22;58633;49.470;11.004;2022-10-16T07:41:24;16.70;99.90
6824;DHT22;58633;49.470;11.004;2022-10-16T07:43:51;17.00;99.90
6824;DHT22;58633;49.470;11.004;2022-10-16T07:46:18;16.70;99.90
6824;DHT22;58633;49.470;11.004;2022-10-16T07:48:44;16.70;99.90
6824;DHT22;58633;49.470;11.004;2022-10-16T07:51:13;16.90;99.90
6824;DHT22;58633;49.470;11.004;2022-10-16T07:53:39;16.80;99.90
6824;DHT22;58633;49.470;11.004;2022-10-16T07:56:06;16.90;99.90
6824;DHT22;58633;49.470;11.004;2022-10-16T07:58:32;16.90;99.90
6824;DHT22;58633;49.470;11.004;2022-10-16T08:00:58;16.90;99.90
6824;DHT22;58633;49.470;11.004;2022-10-16T08:03:25;16.70;99.90
6824;DHT22;58633;49.470;11.004;2022-10-16T08:05:51;17.00;99.90
6824;DHT22;58633;49.470;11.004;2022-10-16T08:08:18;16.90;99.90
6824;DHT22;58633;49.470;11.004;2022-10-16T08:10:44;17.10;99.90
6824;DHT22;58633;49.470;11.004;2022-10-16T08:13:10;17.00;99.90
6824;DHT22;58633;49.470;11.004;2022-10-16T08:15:36;16.90;99.90
6824;DHT22;58633;49.470;11.004;2022-10-16T08:18:03;16.80;99.90
6824;DHT22;58633;49.470;11.004;2022-10-16T08:20:31;16.90;99.90
6824;DHT22;58633;49.470;11.004;2022-10-16T08:22:57;17.00;99.90
6824;DHT22;58633;49.470;11.004;2022-10-16T08:25:24;16.90;99.90
6824;DHT22;58633;49.470;11.004;2022-10-16T08:27:50;16.90;99.90
6824;DHT22;58633;49.470;11.004;2022-10-16T08:30:20;17.00;99.90
6824;DHT22;58633;49.470;11.004;2022-10-16T08:32:45;17.10;99.90
6824;DHT22;58633;49.470;11.004;2022-10-16T08:35:12;20.90;99.90
6824;DHT22;58633;49.470;11.004;2022-10-16T08:37:38;17.30;99.90
6824;DHT22;58633;49.470;11.004;2022-10-16T08:40:05;17.10;99.90
6824;DHT22;58633;49.470;11.004;2022-10-16T08:45:33;17.30;99.90
6824;DHT22;58633;49.470;11.004;2022-10-16T08:48:34;17.20;99.90
6824;DHT22;58633;49.470;11.004;2022-10-16T08:51:02;17.30;99.90
6824;DHT22;58633;49.470;11.004;2022-10-16T08:53:48;17.40;99.90
6824;DHT22;58633;49.470;11.004;2022-10-16T08:56:17;17.40;99.90
6824;DHT22;58633;49.470;11.004;2022-10-16T08:58:43;17.60;99.90
6824;DHT22;58633;49.470;11.004;2022-10-16T09:01:15;17.70;99.90
6824;DHT22;58633;49.470;11.004;2022-10-16T09:06:54;17.70;99.90
6824;DHT22;58633;49.470;11.004;2022-10-16T09:09:36;18.00;99.90
6824;DHT22;58633;49.470;11.004;2022-10-16T09:12:15;17.90;99.90
6824;DHT22;58633;49.470;11.004;2022-10-16T09:17:26;18.00;99.90
6824;DHT22;58633;49.470;11.004;2022-10-16T09:22:48;18.10;99.90
6824;DHT22;58633;49.470;11.004;2022-10-16T09:25:18;18.20;99.90
6824;DHT22;58633;49.470;11.004;2022-10-16T09:27:47;18.10;99.90
6824;DHT22;58633;49.470;11.004;2022-10-16T09:30:18;18.10;99.90
6824;DHT22;58633;49.470;11.004;2022-10-16T09:32:48;18.20;99.90
6824;DHT22;58633;49.470;11.004;2022-10-16T09:35:20;18.10;99.90
6824;DHT22;58633;49.470;11.004;2022-10-16T09:37:49;18.00;99.90
6824;DHT22;58633;49.470;11.004;2022-10-16T09:40:33;17.90;99.90
6824;DHT22;58633;49.470;11.004;2022-10-16T09:43:19;17.90;99.90
6824;DHT22;58633;49.470;11.004;2022-10-16T09:46:00;17.90;99.90
6824;DHT22;58633;49.470;11.004;2022-10-16T09:48:44;18.00;99.90
6824;DHT22;58633;49.470;11.004;2022-10-16T09:51:25;18.10;99.90
6824;DHT22;58633;49.470;11.004;2022-10-16T09:54:00;18.00;99.90
6824;DHT22;58633;49.470;11.004;2022-10-16T09:56:30;18.00;99.90
6824;DHT22;58633;49.470;11.004;2022-10-16T09:58:59;18.10;99.90
6824;DHT22;58633;49.470;11.004;2022-10-16T10:01:37;18.10;99.90
6824;DHT22;58633;49.470;11.004;2022-10-16T10:04:03;18.40;99.90
6824;DHT22;58633;49.470;11.004;2022-10-16T10:06:33;18.20;99.90
6824;DHT22;58633;49.470;11.004;2022-10-16T10:11:57;18.50;99.90
6824;DHT22;58633;49.470;11.004;2022-10-16T10:14:30;18.60;99.90
6824;DHT22;58633;49.470;11.004;2022-10-16T10:19:39;18.80;96.90
6824;DHT22;58633;49.470;11.004;2022-10-16T10:22:28;19.00;96.80
6824;DHT22;58633;49.470;11.004;2022-10-16T10:30:25;19.10;95.50
6824;DHT22;58633;49.470;11.004;2022-10-16T10:35:53;19.30;93.50
6824;DHT22;58633;49.470;11.004;2022-10-16T10:46:50;19.50;91.20
6824;DHT22;58633;49.470;11.004;2022-10-16T10:58:05;19.80;88.20
6824;DHT22;58633;49.470;11.004;2022-10-16T11:00:50;19.70;88.50
6824;DHT22;58633;49.470;11.004;2022-10-16T11:03:27;19.60;88.80
6824;DHT22;58633;49.470;11.004;2022-10-16T11:06:25;19.80;88.30
6824;DHT22;58633;49.470;11.004;2022-10-16T11:09:18;19.60;88.50
6824;DHT22;58633;49.470;11.004;2022-10-16T11:11:57;19.70;88.50
6824;DHT22;58633;49.470;11.004;2022-10-16T11:14:34;19.80;88.00
6824;DHT22;58633;49.470;11.004;2022-10-16T11:25:27;20.10;86.60
6824;DHT22;58633;49.470;11.004;2022-10-16T11:30:30;20.20;85.50
6824;DHT22;58633;49.470;11.004;2022-10-16T11:38:46;20.30;84.60
6824;DHT22;58633;49.470;11.004;2022-10-16T11:43:43;20.50;83.10
6824;DHT22;58633;49.470;11.004;2022-10-16T11:46:16;20.60;83.40
6824;DHT22;58633;49.470;11.004;2022-10-16T11:48:50;20.50;83.20
6824;DHT22;58633;49.470;11.004;2022-10-16T11:51:40;20.70;82.50
6824;DHT22;58633;49.470;11.004;2022-10-16T11:54:24;21.10;81.20
6824;DHT22;58633;49.470;11.004;2022-10-16T11:56:55;21.20;79.50
6824;DHT22;58633;49.470;11.004;2022-10-16T11:59:42;21.70;77.80
6824;DHT22;58633;49.470;11.004;2022-10-16T12:05:28;22.00;77.10
6824;DHT22;58633;49.470;11.004;2022-10-16T12:08:14;22.10;77.10
6824;DHT22;58633;49.470;11.004;2022-10-16T12:10:44;22.30;76.30
6824;DHT22;58633;49.470;11.004;2022-10-16T12:13:35;22.50;75.40
6824;DHT22;58633;49.470;11.004;2022-10-16T12:16:28;22.90;74.30
6824;DHT22;58633;49.470;11.004;2022-10-16T12:19:15;23.00;74.40
6824;DHT22;58633;49.470;11.004;2022-10-16T12:21:42;23.40;73.10
6824;DHT22;58633;49.470;11.004;2022-10-16T12:26:53;23.70;72.30
6824;DHT22;58633;49.470;11.004;2022-10-16T12:29:41;23.70;71.20
6824;DHT22;58633;49.470;11.004;2022-10-16T12:32:31;23.40;70.30
6824;DHT22;58633;49.470;11.004;2022-10-16T12:34:58;23.20;71.00
6824;DHT22;58633;49.470;11.004;2022-10-16T12:37:35;23.00;71.00
6824;DHT22;58633;49.470;11.004;2022-10-16T12:40:23;23.20;70.50
6824;DHT22;58633;49.470;11.004;2022-10-16T12:42:51;23.10;70.50
6824;DHT22;58633;49.470;11.004;2022-10-16T12:45:32;23.10;70.30
6824;DHT22;58633;49.470;11.004;2022-10-16T12:48:04;22.90;69.70
6824;DHT22;58633;49.470;11.004;2022-10-16T12:50:44;23.10;69.00
6824;DHT22;58633;49.470;11.004;2022-10-16T12:53:21;22.90;69.30
6824;DHT22;58633;49.470;11.004;2022-10-16T12:56:00;23.10;69.00
6824;DHT22;58633;49.470;11.004;2022-10-16T12:58:35;23.20;68.90
6824;DHT22;58633;49.470;11.004;2022-10-16T13:04:30;23.30;68.70
6824;DHT22;58633;49.470;11.004;2022-10-16T13:07:08;23.50;67.80
6824;DHT22;58633;49.470;11.004;2022-10-16T13:09:45;23.70;67.10
6824;DHT22;58633;49.470;11.004;2022-10-16T13:18:27;24.60;66.60
6824;DHT22;58633;49.470;11.004;2022-10-16T13:20:59;25.30;65.60
6824;DHT22;58633;49.470;11.004;2022-10-16T13:26:22;25.10;64.40
6824;DHT22;58633;49.470;11.004;2022-10-16T13:28:50;24.80;64.70
6824;DHT22;58633;49.470;11.004;2022-10-16T13:31:22;24.90;65.10
6824;DHT22;58633;49.470;11.004;2022-10-16T13:33:59;24.70;64.40
6824;DHT22;58633;49.470;11.004;2022-10-16T13:36:33;24.70;64.60
6824;DHT22;58633;49.470;11.004;2022-10-16T13:39:14;24.40;65.20
6824;DHT22;58633;49.470;11.004;2022-10-16T13:41:40;24.50;65.70
6824;DHT22;58633;49.470;11.004;2022-10-16T13:44:14;24.80;65.70
6824;DHT22;58633;49.470;11.004;2022-10-16T13:46:41;25.40;64.40
6824;DHT22;58633;49.470;11.004;2022-10-16T13:49:15;25.50;63.50
6824;DHT22;58633;49.470;11.004;2022-10-16T13:51:47;25.50;62.40
6824;DHT22;58633;49.470;11.004;2022-10-16T13:54:18;25.50;61.70
6824;DHT22;58633;49.470;11.004;2022-10-16T13:56:44;25.40;61.90
6824;DHT22;58633;49.470;11.004;2022-10-16T13:59:25;25.50;61.40
6824;DHT22;58633;49.470;11.004;2022-10-16T14:01:54;25.80;61.50
6824;DHT22;58633;49.470;11.004;2022-10-16T14:04:21;26.10;60.00
6824;DHT22;58633;49.470;11.004;2022-10-16T14:06:49;26.20;59.80
6824;DHT22;58633;49.470;11.004;2022-10-16T14:09:25;27.20;58.90
6824;DHT22;58633;49.470;11.004;2022-10-16T14:11:58;27.20;59.00
6824;DHT22;58633;49.470;11.004;2022-10-16T14:14:27;28.30;57.20
6824;DHT22;58633;49.470;11.004;2022-10-16T14:16:56;28.50;56.60
6824;DHT22;58633;49.470;11.004;2022-10-16T14:19:25;28.20;56.20
6824;DHT22;58633;49.470;11.004;2022-10-16T14:21:52;28.20;56.00
6824;DHT22;58633;49.470;11.004;2022-10-16T14:26:58;27.90;55.40
6824;DHT22;58633;49.470;11.004;2022-10-16T14:29:26;27.70;55.80
6824;DHT22;58633;49.470;11.004;2022-10-16T14:32:04;27.80;55.70
6824;DHT22;58633;49.470;11.004;2022-10-16T14:34:35;27.40;56.00
6824;DHT22;58633;49.470;11.004;2022-10-16T14:37:23;26.90;56.60
6824;DHT22;58633;49.470;11.004;2022-10-16T14:39:51;26.50;57.70
6824;DHT22;58633;49.470;11.004;2022-10-16T14:42:19;26.30;58.60
6824;DHT22;58633;49.470;11.004;2022-10-16T14:44:46;26.30;58.60
6824;DHT22;58633;49.470;11.004;2022-10-16T14:47:17;26.00;58.30
6824;DHT22;58633;49.470;11.004;2022-10-16T14:49:49;25.70;58.70
6824;DHT22;58633;49.470;11.004;2022-10-16T14:52:15;25.20;59.20
6824;DHT22;58633;49.470;11.004;2022-10-16T14:54:40;25.00;59.50
6824;DHT22;58633;49.470;11.004;2022-10-16T14:57:18;25.10;60.00
6824;DHT22;58633;49.470;11.004;2022-10-16T14:59:44;25.20;59.30
6824;DHT22;58633;49.470;11.004;2022-10-16T15:04:55;25.00;59.30
6824;DHT22;58633;49.470;11.004;2022-10-16T15:07:21;25.10;59.70
6824;DHT22;58633;49.470;11.004;2022-10-16T15:12:13;24.90;59.00
6824;DHT22;58633;49.470;11.004;2022-10-16T15:14:38;24.70;59.00
6824;DHT22;58633;49.470;11.004;2022-10-16T15:17:04;24.70;59.40
6824;DHT22;58633;49.470;11.004;2022-10-16T15:19:30;24.70;59.80
6824;DHT22;58633;49.470;11.004;2022-10-16T15:21:56;24.60;60.10
6824;DHT22;58633;49.470;11.004;2022-10-16T15:24:21;24.50;60.10
6824;DHT22;58633;49.470;11.004;2022-10-16T15:26:47;24.30;60.30
6824;DHT22;58633;49.470;11.004;2022-10-16T15:29:14;24.30;60.70
6824;DHT22;58633;49.470;11.004;2022-10-16T15:31:39;24.00;60.20
6824;DHT22;58633;49.470;11.004;2022-10-16T15:34:09;24.00;60.70
6824;DHT22;58633;49.470;11.004;2022-10-16T15:36:36;23.80;60.50
6824;DHT22;58633;49.470;11.004;2022-10-16T15:39:04;23.80;61.00
6824;DHT22;58633;49.470;11.004;2022-10-16T15:41:29;23.80;61.20
6824;DHT22;58633;49.470;11.004;2022-10-16T15:43:55;23.60;61.30
6824;DHT22;58633;49.470;11.004;2022-10-16T15:46:22;23.70;61.90
6824;DHT22;58633;49.470;11.004;2022-10-16T15:48:56;23.60;62.40
6824;DHT22;58633;49.470;11.004;2022-10-16T15:53:48;23.40;62.30
6824;DHT22;58633;49.470;11.004;2022-10-16T15:56:14;23.30;62.60
6824;DHT22;58633;49.470;11.004;2022-10-16T15:58:39;23.30;63.00
6824;DHT22;58633;49.470;11.004;2022-10-16T16:01:05;23.20;62.90
6824;DHT22;58633;49.470;11.004;2022-10-16T16:03:32;23.10;62.80
6824;DHT22;58633;49.470;11.004;2022-10-16T16:06:04;23.00;62.90
6824;DHT22;58633;49.470;11.004;2022-10-16T16:08:29;22.90;63.20
6824;DHT22;58633;49.470;11.004;2022-10-16T16:11:22;22.90;63.40
6824;DHT22;58633;49.470;11.004;2022-10-16T16:16:16;22.80;63.60
6824;DHT22;58633;49.470;11.004;2022-10-16T16:21:11;22.80;63.50
6824;DHT22;58633;49.470;11.004;2022-10-16T16:23:37;22.60;63.60
6824;DHT22;58633;49.470;11.004;2022-10-16T16:28:36;22.60;63.60
6824;DHT22;58633;49.470;11.004;2022-10-16T16:31:03;22.60;63.90
6824;DHT22;58633;49.470;11.004;2022-10-16T16:33:29;22.50;64.30
6824;DHT22;58633;49.470;11.004;2022-10-16T16:36:01;22.50;64.30
6824;DHT22;58633;49.470;11.004;2022-10-16T16:40:53;22.40;64.60
6824;DHT22;58633;49.470;11.004;2022-10-16T16:43:19;22.30;65.30
6824;DHT22;58633;49.470;11.004;2022-10-16T16:45:44;22.20;65.30
6824;DHT22;58633;49.470;11.004;2022-10-16T16:48:10;22.30;65.50
6824;DHT22;58633;49.470;11.004;2022-10-16T16:50:36;22.20;65.40
6824;DHT22;58633;49.470;11.004;2022-10-16T16:53:02;22.20;65.50
6824;DHT22;58633;49.470;11.004;2022-10-16T16:55:28;21.90;65.40
6824;DHT22;58633;49.470;11.004;2022-10-16T16:57:54;22.10;66.10
6824;DHT22;58633;49.470;11.004;2022-10-16T17:00:19;22.10;66.40
6824;DHT22;58633;49.470;11.004;2022-10-16T17:02:49;22.00;66.20
6824;DHT22;58633;49.470;11.004;2022-10-16T17:05:16;22.00;66.80
6824;DHT22;58633;49.470;11.004;2022-10-16T17:07:41;21.90;66.40
6824;DHT22;58633;49.470;11.004;2022-10-16T17:10:08;21.80;66.30
6824;DHT22;58633;49.470;11.004;2022-10-16T17:12:34;21.80;66.50
6824;DHT22;58633;49.470;11.004;2022-10-16T17:17:27;21.80;66.70
6824;DHT22;58633;49.470;11.004;2022-10-16T17:22:19;21.60;66.70
6824;DHT22;58633;49.470;11.004;2022-10-16T17:24:48;21.60;66.90
6824;DHT22;58633;49.470;11.004;2022-10-16T17:27:15;21.60;66.90
6824;DHT22;58633;49.470;11.004;2022-10-16T17:29:41;21.60;67.20
6824;DHT22;58633;49.470;11.004;2022-10-16T17:32:07;21.50;67.40
6824;DHT22;58633;49.470;11.004;2022-10-16T17:34:33;21.40;67.80
6824;DHT22;58633;49.470;11.004;2022-10-16T17:37:00;21.40;68.40
6824;DHT22;58633;49.470;11.004;2022-10-16T17:39:26;21.40;69.00
6824;DHT22;58633;49.470;11.004;2022-10-16T17:41:52;21.30;69.40
6824;DHT22;58633;49.470;11.004;2022-10-16T17:44:17;21.40;70.30
6824;DHT22;58633;49.470;11.004;2022-10-16T17:46:47;21.30;69.10
6824;DHT22;58633;49.470;11.004;2022-10-16T17:49:13;21.30;69.30